Rosamond, CA

10:03 PM PDT on August 22, 2014 (GMT -0700)
Palmdale Af Plant 42 | Change Station
CLOSE
Current Station
Airport
Location: Palmdale,
Elevation: 2543 ft
Nearby Weather Stations

Elev 2543 ft 34.63 °N, 118.08 °W | Updated 10 minutes ago

Clear
Clear
74 °F
Feels Like 74 °F
N
17
Wind Variable Wind from SW

Today
High -- | Low -- °F
--% Chance of Precip.
Yesterday
High -- | Low -- °F
Precip. -- in
6:18 AM 7:32 PM
Waning Crescent, 5% visible
Pressure 29.88 in
Visibility 10.0 miles
Clouds Clear
Dew Point 42 °F
Humidity 32%
Rainfall 0.00 in
Snow Depth Not available.
UV 0 out of 12
Pollen 8.50 out of 12
Ozone Good
Flu Activity Not available.
METAR KPMD 230453Z AUTO 23015KT 10SM CLR 23/06 A2997 RMK AO2 SLP118 T02330056

More Conditions Fewer Conditions

Pressure 29.88 in
Visibility 10.0 miles
Clouds Clear
Dew Point 42 °F
Humidity 32%
Rainfall 0.00 in
Snow Depth Not available.
UV 0 out of 12
Pollen 8.50 out of 12
Ozone Good
Flu Activity Not available.
METAR KPMD 230453Z AUTO 23015KT 10SM CLR 23/06 A2997 RMK AO2 SLP118 T02330056

More Conditions Fewer Conditions

10-Day Weather Forecast

Almanac

Astronomy

Aug. 22, 2014 Rise Set
Actual Time 6:18 AM PDT 7:32 PM PDT
Civil Twilight 5:52 AM PDT 7:58 PM PDT
Nautical Twilight 5:20 AM PDT 8:30 PM PDT
Astronomical Twilight 4:48 AM PDT 9:02 PM PDT
Moon 3:48 AM PDT (8/22) 5:42 PM PDT (8/22)
Length of Visible Light 14h 06m
Length of Day
13h 13m
Tomorrow will be 2m 1s shorter.
Waning Crescent, 5% of the Moon is Illuminated
Aug 23
Waning Crescent
Aug 25
New
Sep 2
First Quarter
Sep 8
Full
Sep 15
Last Quarter

Yesterday's Extremes

State Highs State Lows

Community

WunderPhotos

Upload Photos

1,746,366 photos uploaded!

WunderBlogs® & News

By Dr. Jeff Masters
Director of Meteorology, Weather Underground
By Kari Strenfel
Meteorologist, Weather Underground
By Christopher C. Burt
Weather Historian, Weather Underground
August 23, 2014
August 23, 2014
August 22, 2014

Nearby

Air Quality

  Air Quality AQ Index Pollutant
Current Good
OZONE
Saturday Good
PM10
Saturday Good
OZONE
Saturday Good
CO
Saturday Good
NO2

Snow Depth

Station Depth Elevation
Leavitt Lake 0 in 9400 ft
Leavitt Meadows 1 in 7200 ft
Summit Meadow 1 in 9122 ft
Monitor Pass 0 in 8350 ft
Forestdale Creek 0 in 8029 ft

Earthquake Activity

City Distance Mag. Time & Date
West Hills, California 49 miles 2.5 4:21 AM PDT
2014-08-18
Big Bear City, California 90 miles 3.7 9:55 PM PDT
2014-08-17
Minimum magnitude displayed is 2.5.

Coastal Water Temperatures

Place Temperature
No Stations Reporting

Nearby Weather Stations